createdAt,value
2018-02-08T00:00:14.092Z,95.40
2018-02-08T00:02:42.404Z,95.30
2018-02-08T00:05:09.971Z,95.30
2018-02-08T00:07:38.274Z,95.90
2018-02-08T00:10:06.612Z,95.90
2018-02-08T00:12:34.159Z,95.80
2018-02-08T00:15:02.508Z,95.90
2018-02-08T00:17:30.061Z,95.90
2018-02-08T00:19:57.655Z,96.10
2018-02-08T00:22:36.969Z,96.40
2018-02-08T00:25:04.588Z,96.60
2018-02-08T00:27:32.131Z,96.90
2018-02-08T00:29:59.724Z,97.00
2018-02-08T00:32:27.283Z,97.30
2018-02-08T00:34:54.868Z,97.50
2018-02-08T00:37:22.428Z,97.70
2018-02-08T00:39:49.968Z,97.70
2018-02-08T00:42:17.535Z,97.90
2018-02-08T00:44:45.168Z,98.00
2018-02-08T00:47:12.728Z,98.10
2018-02-08T00:49:41.044Z,97.20
2018-02-08T00:52:09.401Z,97.50
2018-02-08T00:54:36.978Z,97.50
2018-02-08T00:57:04.585Z,97.80
2018-02-08T00:59:32.140Z,97.80
2018-02-08T01:01:59.776Z,97.80
2018-02-08T01:04:28.093Z,97.80
2018-02-08T01:06:55.667Z,97.80
2018-02-08T01:09:23.983Z,98.10
2018-02-08T01:11:51.565Z,98.10
2018-02-08T01:14:19.143Z,98.10
2018-02-08T01:16:46.828Z,98.00
2018-02-08T01:19:14.431Z,98.20
2018-02-08T01:21:42.743Z,98.70
2018-02-08T01:24:10.314Z,98.40
2018-02-08T01:26:37.864Z,98.20
2018-02-08T01:29:05.428Z,98.00
2018-02-08T01:31:33.020Z,98.00
2018-02-08T01:34:00.604Z,98.10
2018-02-08T01:36:28.176Z,98.10
2018-02-08T01:38:56.552Z,98.50
2018-02-08T01:41:24.112Z,98.50
2018-02-08T01:43:51.691Z,98.60
2018-02-08T01:46:19.253Z,98.50
2018-02-08T01:48:46.818Z,98.50
2018-02-08T01:51:14.384Z,98.50
2018-02-08T01:53:41.961Z,98.50
2018-02-08T01:56:09.520Z,98.40
2018-02-08T01:58:37.099Z,98.30
2018-02-08T02:01:04.694Z,98.20
2018-02-08T02:03:32.289Z,98.40
2018-02-08T02:05:59.856Z,97.90
2018-02-08T02:08:27.425Z,97.80
2018-02-08T02:10:55.011Z,97.80
2018-02-08T02:13:22.567Z,97.80
2018-02-08T02:15:50.139Z,97.90
2018-02-08T02:18:17.691Z,97.90
2018-02-08T02:20:45.259Z,97.90
2018-02-08T02:23:12.812Z,97.70
2018-02-08T02:25:41.188Z,97.50
2018-02-08T02:28:08.759Z,97.60
2018-02-08T02:30:36.341Z,97.80
2018-02-08T02:33:03.925Z,97.90
2018-02-08T02:35:31.500Z,98.00
2018-02-08T02:37:59.059Z,97.90
2018-02-08T02:40:26.641Z,97.80
2018-02-08T02:42:54.204Z,97.70
2018-02-08T02:45:21.782Z,98.00
2018-02-08T02:47:49.338Z,97.70
2018-02-08T02:50:16.924Z,97.20
2018-02-08T02:52:44.492Z,97.70
2018-02-08T02:55:12.072Z,97.60
2018-02-08T02:57:45.819Z,97.40
2018-02-08T03:00:13.396Z,97.60
2018-02-08T03:02:40.972Z,97.70
2018-02-08T03:05:08.523Z,97.50
2018-02-08T03:07:36.858Z,96.90
2018-02-08T03:10:04.412Z,96.90
2018-02-08T03:12:32.755Z,96.90
2018-02-08T03:15:00.314Z,96.90
2018-02-08T03:17:27.883Z,97.10
2018-02-08T03:19:56.293Z,97.40
2018-02-08T03:22:23.858Z,97.40
2018-02-08T03:24:52.183Z,97.40
2018-02-08T03:27:19.754Z,97.40
2018-02-08T03:29:48.086Z,97.50
2018-02-08T03:32:15.659Z,97.50
2018-02-08T03:34:43.202Z,97.40
2018-02-08T03:37:10.839Z,97.00
2018-02-08T03:39:38.392Z,96.90
2018-02-08T03:42:06.727Z,96.50
2018-02-08T03:44:34.275Z,96.50
2018-02-08T03:47:02.595Z,96.70
2018-02-08T03:49:30.167Z,96.70
2018-02-08T03:51:58.480Z,97.00
2018-02-08T03:54:26.060Z,97.00
2018-02-08T03:56:53.604Z,97.10
2018-02-08T03:59:21.210Z,97.00
2018-02-08T04:01:49.523Z,96.90
2018-02-08T04:04:17.968Z,96.90
2018-02-08T04:06:46.288Z,96.80
2018-02-08T04:09:14.627Z,96.70
2018-02-08T04:11:42.943Z,96.90
2018-02-08T04:14:10.528Z,96.80
2018-02-08T04:16:38.084Z,97.00
2018-02-08T04:19:05.664Z,97.20
2018-02-08T04:21:33.227Z,97.20
2018-02-08T04:24:00.796Z,97.00
2018-02-08T04:26:28.344Z,96.60
2018-02-08T04:28:55.928Z,96.40
2018-02-08T04:31:23.471Z,96.50
2018-02-08T04:33:51.093Z,96.80
2018-02-08T04:36:18.660Z,97.10
2018-02-08T04:38:59.255Z,97.10
2018-02-08T04:41:39.415Z,96.90
2018-02-08T04:44:24.735Z,96.80
2018-02-08T04:47:05.020Z,96.50
2018-02-08T04:49:33.359Z,96.50
2018-02-08T04:52:00.913Z,96.40
2018-02-08T04:54:29.250Z,96.40
2018-02-08T04:56:56.800Z,96.40
2018-02-08T04:59:25.155Z,96.50
2018-02-08T05:01:52.712Z,96.50
2018-02-08T05:04:20.267Z,96.50
2018-02-08T05:06:47.835Z,96.60
2018-02-08T05:09:15.427Z,96.80
2018-02-08T05:11:42.991Z,96.80
2018-02-08T05:14:10.605Z,96.60
2018-02-08T05:16:38.205Z,96.50
2018-02-08T05:19:06.526Z,96.30
2018-02-08T05:21:34.101Z,96.20
2018-02-08T05:24:01.794Z,96.20
2018-02-08T05:26:29.371Z,96.00
2018-02-08T05:28:56.929Z,96.20
2018-02-08T05:31:25.260Z,96.50
2018-02-08T05:33:52.807Z,96.50
2018-02-08T05:36:20.371Z,96.40
2018-02-08T05:38:47.915Z,96.30
2018-02-08T05:41:15.494Z,96.20
2018-02-08T05:43:43.815Z,96.20
2018-02-08T05:46:11.434Z,96.20
2018-02-08T05:48:38.982Z,96.10
2018-02-08T05:51:06.550Z,96.00
2018-02-08T05:53:34.144Z,96.00
2018-02-08T05:56:01.716Z,96.00
2018-02-08T05:58:29.266Z,95.90
2018-02-08T06:00:56.838Z,95.90
2018-02-08T06:03:24.394Z,96.00
2018-02-08T06:05:51.944Z,96.40
2018-02-08T06:08:20.288Z,96.70
2018-02-08T06:10:47.837Z,96.60
2018-02-08T06:13:15.407Z,96.50
2018-02-08T06:15:43.723Z,96.40
2018-02-08T06:18:11.290Z,96.30
2018-02-08T06:20:39.602Z,96.00
2018-02-08T06:23:07.951Z,95.80
2018-02-08T06:25:35.496Z,95.70
2018-02-08T06:28:03.063Z,95.60
2018-02-08T06:30:30.608Z,95.60
2018-02-08T06:32:58.177Z,95.80
2018-02-08T06:35:25.718Z,96.10
2018-02-08T06:37:54.059Z,96.60
2018-02-08T06:40:21.615Z,96.60
2018-02-08T06:42:49.187Z,96.80
2018-02-08T06:45:17.500Z,96.90
2018-02-08T06:47:45.835Z,97.00
2018-02-08T06:50:13.388Z,97.00
2018-02-08T06:52:40.983Z,96.90
2018-02-08T06:55:08.544Z,96.70
2018-02-08T06:57:36.893Z,96.50
2018-02-08T07:00:04.466Z,96.50
2018-02-08T07:02:32.012Z,96.50
2018-02-08T07:04:59.608Z,96.50
2018-02-08T07:07:27.931Z,96.40
2018-02-08T07:09:55.500Z,96.40
2018-02-08T07:12:23.835Z,96.30
2018-02-08T07:14:51.415Z,96.30
2018-02-08T07:17:19.233Z,96.50
2018-02-08T07:19:46.784Z,97.10
2018-02-08T07:22:14.334Z,97.10
2018-02-08T07:24:42.668Z,95.30
2018-02-08T07:27:10.220Z,95.30
2018-02-08T07:29:38.559Z,95.90
2018-02-08T07:32:06.107Z,96.10
2018-02-08T07:34:34.441Z,96.00
2018-02-08T07:37:01.995Z,96.00
2018-02-08T07:39:30.354Z,96.30
2018-02-08T07:41:57.900Z,96.30
2018-02-08T07:44:25.443Z,96.30
2018-02-08T07:46:53.008Z,96.10
2018-02-08T07:49:20.556Z,96.00
2018-02-08T07:51:48.119Z,96.00
2018-02-08T07:54:16.442Z,96.20
2018-02-08T07:56:44.027Z,96.20
2018-02-08T07:59:11.585Z,96.30
2018-02-08T08:01:39.915Z,96.60
2018-02-08T08:04:07.458Z,96.50
2018-02-08T08:06:35.024Z,96.60
2018-02-08T08:09:02.586Z,96.70
2018-02-08T08:11:30.147Z,96.90
2018-02-08T08:13:57.695Z,97.00
2018-02-08T08:16:25.263Z,97.10
2018-02-08T08:18:53.572Z,97.30
2018-02-08T08:21:21.165Z,97.30
2018-02-08T08:23:48.699Z,97.40
2018-02-08T08:26:16.266Z,97.40
2018-02-08T08:28:43.815Z,97.40
2018-02-08T08:31:11.403Z,97.30
2018-02-08T08:33:38.947Z,97.30
2018-02-08T08:36:06.500Z,97.20
2018-02-08T08:38:34.063Z,97.00
2018-02-08T08:41:02.379Z,97.20
2018-02-08T08:43:30.708Z,97.20
2018-02-08T08:45:58.248Z,97.20
2018-02-08T08:48:26.583Z,97.50
2018-02-08T08:50:54.123Z,97.50
2018-02-08T08:53:21.715Z,97.60
2018-02-08T08:55:49.261Z,97.60
2018-02-08T08:58:16.827Z,97.70
2018-02-08T09:00:44.371Z,97.60
2018-02-08T09:03:12.705Z,97.60
2018-02-08T09:05:40.239Z,97.60
2018-02-08T09:08:07.802Z,97.30
2018-02-08T09:10:35.339Z,97.60
2018-02-08T09:13:03.667Z,97.20
2018-02-08T09:15:31.218Z,97.10
2018-02-08T09:17:59.572Z,97.20
2018-02-08T09:20:27.123Z,97.20
2018-02-08T09:22:54.665Z,97.30
2018-02-08T09:25:22.225Z,97.20
2018-02-08T09:27:49.772Z,97.00
2018-02-08T09:30:17.341Z,96.70
2018-02-08T09:32:45.663Z,96.20
2018-02-08T09:35:13.227Z,96.10
2018-02-08T09:37:41.564Z,95.70
2018-02-08T09:40:09.125Z,95.70
2018-02-08T09:42:37.431Z,94.60
2018-02-08T09:45:05.008Z,94.60
2018-02-08T09:47:32.544Z,94.20
2018-02-08T09:50:00.103Z,94.00
2018-02-08T09:52:27.645Z,93.20
2018-02-08T09:54:55.972Z,91.40
2018-02-08T09:57:23.515Z,91.30
2018-02-08T09:59:51.079Z,90.90
2018-02-08T10:02:18.640Z,90.70
2018-02-08T10:04:46.207Z,90.30
2018-02-08T10:07:13.751Z,85.50
2018-02-08T10:09:41.307Z,83.30
2018-02-08T10:12:08.850Z,82.90
2018-02-08T10:14:37.192Z,80.50
2018-02-08T10:17:04.747Z,80.50
2018-02-08T10:19:32.295Z,79.50
2018-02-08T10:22:00.619Z,79.00
2018-02-08T10:24:28.923Z,77.40
2018-02-08T10:26:56.491Z,77.40
2018-02-08T10:29:24.804Z,75.00
2018-02-08T10:31:53.135Z,72.90
2018-02-08T10:34:20.732Z,72.90
2018-02-08T10:36:48.263Z,71.80
2018-02-08T10:39:16.571Z,69.60
2018-02-08T10:41:44.918Z,70.80
2018-02-08T10:44:12.471Z,70.80
2018-02-08T10:46:40.125Z,71.80
2018-02-08T10:49:07.654Z,70.20
2018-02-08T10:51:35.228Z,69.20
2018-02-08T10:54:02.784Z,68.40
2018-02-08T10:56:31.126Z,68.40
2018-02-08T10:58:58.666Z,68.40
2018-02-08T11:01:26.204Z,67.10
2018-02-08T11:03:53.787Z,67.30
2018-02-08T11:06:21.333Z,66.20
2018-02-08T11:08:49.659Z,65.10
2018-02-08T11:11:17.244Z,65.80
2018-02-08T11:13:45.545Z,65.60
2018-02-08T11:16:13.080Z,65.60
2018-02-08T11:18:40.636Z,65.40
2018-02-08T11:21:08.170Z,64.90
2018-02-08T11:23:36.507Z,64.60
2018-02-08T11:26:04.040Z,64.60
2018-02-08T11:28:31.599Z,64.30
2018-02-08T11:30:59.140Z,66.00
2018-02-08T11:33:26.698Z,66.60
2018-02-08T11:35:55.054Z,65.20
2018-02-08T11:38:22.592Z,64.50
2018-02-08T11:40:50.910Z,63.10
2018-02-08T11:43:18.468Z,63.10
2018-02-08T11:45:46.016Z,61.60
2018-02-08T11:48:13.576Z,59.10
2018-02-08T11:50:41.109Z,58.80
2018-02-08T11:53:09.447Z,58.00
2018-02-08T11:55:36.991Z,58.00
2018-02-08T11:58:04.537Z,56.20
2018-02-08T12:00:32.134Z,58.00
2018-02-08T12:02:59.687Z,55.40
2018-02-08T12:05:27.240Z,55.70
2018-02-08T12:07:54.783Z,55.80
2018-02-08T12:10:22.347Z,55.50
2018-02-08T12:12:49.887Z,55.90
2018-02-08T12:15:18.079Z,56.00
2018-02-08T12:17:46.415Z,57.90
2018-02-08T12:20:14.764Z,58.50
2018-02-08T12:22:42.304Z,58.50
2018-02-08T12:25:09.861Z,60.00
2018-02-08T12:27:38.168Z,58.50
2018-02-08T12:30:06.519Z,58.20
2018-02-08T12:32:34.075Z,58.10
2018-02-08T12:35:01.626Z,58.20
2018-02-08T12:37:29.164Z,57.50
2018-02-08T12:39:56.720Z,58.30
2018-02-08T12:42:25.032Z,57.90
2018-02-08T12:44:52.606Z,58.00
2018-02-08T12:47:20.916Z,56.90
2018-02-08T12:49:49.060Z,56.90
2018-02-08T12:52:16.636Z,57.50
2018-02-08T12:54:44.180Z,54.20
2018-02-08T12:57:11.731Z,56.20
2018-02-08T12:59:39.275Z,56.20
2018-02-08T13:02:06.867Z,54.10
2018-02-08T13:04:34.411Z,54.10
2018-02-08T13:07:01.978Z,53.00
2018-02-08T13:09:30.297Z,51.30
2018-02-08T13:11:57.851Z,51.30
2018-02-08T13:14:25.395Z,52.30
2018-02-08T13:16:52.959Z,54.40
2018-02-08T13:19:20.499Z,54.20
2018-02-08T13:21:48.055Z,55.10
2018-02-08T13:24:15.597Z,55.20
2018-02-08T13:26:43.925Z,56.00
2018-02-08T13:29:11.492Z,56.00
2018-02-08T13:31:40.664Z,56.40
2018-02-08T13:34:08.210Z,56.60
2018-02-08T13:36:38.273Z,56.10
2018-02-08T13:39:05.821Z,55.00
2018-02-08T13:41:33.404Z,56.80
2018-02-08T13:44:00.939Z,57.00
2018-02-08T13:46:28.488Z,56.10
2018-02-08T13:48:56.058Z,55.80
2018-02-08T13:54:32.821Z,55.30
2018-02-08T14:00:24.420Z,55.70
2018-02-08T14:03:00.488Z,54.80
2018-02-08T14:05:28.434Z,55.40
2018-02-08T14:07:56.004Z,54.90
2018-02-08T14:10:23.536Z,55.90
2018-02-08T14:12:51.855Z,56.40
2018-02-08T14:15:20.395Z,56.40
2018-02-08T14:17:50.195Z,54.50
2018-02-08T14:20:18.317Z,55.00
2018-02-08T14:22:45.897Z,54.80
2018-02-08T14:25:13.447Z,54.90
2018-02-08T14:27:41.792Z,55.20
2018-02-08T14:30:09.444Z,55.20
2018-02-08T14:32:36.996Z,55.90
2018-02-08T14:35:04.592Z,55.40
2018-02-08T14:37:32.197Z,56.30
2018-02-08T14:40:00.525Z,58.00
2018-02-08T14:42:28.832Z,58.50
2018-02-08T14:44:56.389Z,58.50
2018-02-08T14:47:23.926Z,58.30
2018-02-08T14:49:51.497Z,58.00
2018-02-08T14:52:19.028Z,58.20
2018-02-08T14:54:47.544Z,56.60
2018-02-08T14:57:15.843Z,56.80
2018-02-08T14:59:44.203Z,58.30
2018-02-08T15:02:11.747Z,58.30
2018-02-08T15:04:39.304Z,60.30
2018-02-08T15:07:07.614Z,61.60
2018-02-08T15:09:35.940Z,63.30
2018-02-08T15:12:03.507Z,63.30
2018-02-08T15:14:31.073Z,64.40
2018-02-08T15:16:59.376Z,65.80
2018-02-08T15:19:27.706Z,66.70
2018-02-08T15:21:55.271Z,66.70
2018-02-08T15:24:22.823Z,67.00
2018-02-08T15:26:50.394Z,68.20
2018-02-08T15:29:17.952Z,68.60
2018-02-08T15:31:45.515Z,68.10
2018-02-08T15:34:13.059Z,68.70
2018-02-08T15:36:40.627Z,69.50
2018-02-08T15:39:08.176Z,70.90
2018-02-08T15:41:35.749Z,72.40
2018-02-08T15:44:03.301Z,73.60
2018-02-08T15:46:30.859Z,74.20
2018-02-08T15:48:58.409Z,74.60
2018-02-08T15:51:25.976Z,74.50
2018-02-08T15:53:54.300Z,75.00
2018-02-08T15:56:21.864Z,75.00
2018-02-08T15:58:50.173Z,75.70
2018-02-08T16:01:17.749Z,75.80
2018-02-08T16:03:46.056Z,76.40
2018-02-08T16:06:14.360Z,77.00
2018-02-08T16:08:42.683Z,77.50
2018-02-08T16:11:10.221Z,77.50
2018-02-08T16:13:37.791Z,78.00
2018-02-08T16:16:05.338Z,78.20
2018-02-08T16:18:32.903Z,78.70
2018-02-08T16:21:01.249Z,79.10
2018-02-08T16:23:28.803Z,79.10
2018-02-08T16:25:56.375Z,79.10
2018-02-08T16:28:23.947Z,79.60
2018-02-08T16:30:52.256Z,81.00
2018-02-08T16:33:19.824Z,81.00
2018-02-08T16:35:48.135Z,82.30
2018-02-08T16:38:16.466Z,83.30
2018-02-08T16:40:44.019Z,83.30
2018-02-08T16:43:12.348Z,86.00
2018-02-08T16:45:39.886Z,86.00
2018-02-08T16:48:07.451Z,86.60
2018-02-08T16:50:34.999Z,87.30
2018-02-08T16:53:02.559Z,88.40
2018-02-08T16:55:30.873Z,90.00
2018-02-08T16:57:58.431Z,90.00
2018-02-08T17:00:26.797Z,90.40
2018-02-08T17:02:54.303Z,90.30
2018-02-08T17:05:21.864Z,90.20
2018-02-08T17:07:49.403Z,90.30
2018-02-08T17:10:16.984Z,91.30
2018-02-08T17:12:45.299Z,91.60
2018-02-08T17:15:12.854Z,91.60
2018-02-08T17:17:40.492Z,92.00
2018-02-08T17:20:08.059Z,92.10
2018-02-08T17:22:35.604Z,92.50
2018-02-08T17:25:03.931Z,92.90
2018-02-08T17:27:31.471Z,93.20
2018-02-08T17:29:59.035Z,93.00
2018-02-08T17:32:26.585Z,92.90
2018-02-08T17:34:54.151Z,92.50
2018-02-08T17:37:22.459Z,92.10
2018-02-08T17:39:50.783Z,92.10
2018-02-08T17:42:18.319Z,92.00
2018-02-08T17:44:45.884Z,92.20
2018-02-08T17:47:13.419Z,92.30
2018-02-08T17:49:41.019Z,92.60
2018-02-08T17:52:08.565Z,92.70
2018-02-08T17:54:36.143Z,93.30
2018-02-08T17:57:03.687Z,93.50
2018-02-08T17:59:31.227Z,93.90
2018-02-08T18:01:59.560Z,94.10
2018-02-08T18:04:27.107Z,94.00
2018-02-08T18:06:55.435Z,94.30
2018-02-08T18:09:22.983Z,94.30
2018-02-08T18:11:51.689Z,94.30
2018-02-08T18:14:19.541Z,94.60
2018-02-08T18:16:47.122Z,94.70
2018-02-08T18:19:14.663Z,94.50
2018-02-08T18:21:42.990Z,94.30
2018-02-08T18:24:10.531Z,94.30
2018-02-08T18:26:38.100Z,94.30
2018-02-08T18:29:05.646Z,94.30
2018-02-08T18:31:33.216Z,94.10
2018-02-08T18:34:01.531Z,94.50
2018-02-08T18:36:29.091Z,94.50
2018-02-08T18:38:57.391Z,94.30
2018-02-08T18:41:25.715Z,94.30
2018-02-08T18:43:53.255Z,94.30
2018-02-08T18:46:20.899Z,94.50
2018-02-08T18:48:48.439Z,94.70
2018-02-08T18:51:15.983Z,94.70
2018-02-08T18:53:43.548Z,95.20
2018-02-08T18:56:11.113Z,95.30
2018-02-08T18:58:38.690Z,95.30
2018-02-08T19:01:07.004Z,95.00
2018-02-08T19:03:34.592Z,94.90
2018-02-08T19:06:02.145Z,94.70
2018-02-08T19:08:29.702Z,95.20
2018-02-08T19:10:57.275Z,95.50
2018-02-08T19:13:24.843Z,95.40
2018-02-08T19:15:52.399Z,95.10
2018-02-08T19:18:20.727Z,95.00
2018-02-08T19:20:48.262Z,95.00
2018-02-08T19:23:15.819Z,95.00
2018-02-08T19:25:43.378Z,94.90
2018-02-08T19:28:10.947Z,95.10
2018-02-08T19:30:38.491Z,95.40
2018-02-08T19:33:06.219Z,95.70
2018-02-08T19:35:33.759Z,95.90
2018-02-08T19:38:01.333Z,96.10
2018-02-08T19:40:29.047Z,96.20
2018-02-08T19:42:56.612Z,96.20
2018-02-08T19:45:24.171Z,96.10
2018-02-08T19:47:51.707Z,95.90
2018-02-08T19:50:20.051Z,96.10
2018-02-08T19:52:47.612Z,96.10
2018-02-08T19:55:15.180Z,96.20
2018-02-08T19:57:42.766Z,95.90
2018-02-08T20:00:11.131Z,95.70
2018-02-08T20:02:38.672Z,95.70
2018-02-08T20:05:06.231Z,95.70
2018-02-08T20:07:34.550Z,96.30
2018-02-08T20:10:02.123Z,96.20
2018-02-08T20:12:30.432Z,96.20
2018-02-08T20:14:59.985Z,96.30
2018-02-08T20:17:27.557Z,96.20
2018-02-08T20:19:55.115Z,96.60
2018-02-08T20:22:23.431Z,96.70
2018-02-08T20:24:56.635Z,96.60
2018-02-08T20:27:24.383Z,96.60
2018-02-08T20:29:58.846Z,96.50
2018-02-08T20:32:27.024Z,96.30
2018-02-08T20:34:54.595Z,96.20
2018-02-08T20:37:22.143Z,96.20
2018-02-08T20:39:50.551Z,96.10
2018-02-08T20:42:23.754Z,96.10
2018-02-08T20:44:51.320Z,96.00
2018-02-08T20:47:18.876Z,96.10
2018-02-08T20:49:52.227Z,96.20
2018-02-08T20:52:19.784Z,96.30
2018-02-08T20:54:47.364Z,96.40
2018-02-08T20:57:14.927Z,96.50
2018-02-08T20:59:43.284Z,96.40
2018-02-08T21:02:10.856Z,96.40
2018-02-08T21:04:38.409Z,96.30
2018-02-08T21:07:06.808Z,96.40
2018-02-08T21:09:34.391Z,96.60
2018-02-08T21:12:01.962Z,96.60
2018-02-08T21:14:30.425Z,96.70
2018-02-08T21:16:57.986Z,96.80
2018-02-08T21:19:25.534Z,96.70
2018-02-08T21:21:53.102Z,96.80
2018-02-08T21:24:21.411Z,97.00
2018-02-08T21:26:49.748Z,97.00
2018-02-08T21:29:17.304Z,97.00
2018-02-08T21:31:45.640Z,96.90
2018-02-08T21:34:13.188Z,96.90
2018-02-08T21:36:40.730Z,96.90
2018-02-08T21:39:09.002Z,96.70
2018-02-08T21:41:36.641Z,96.50
2018-02-08T21:44:10.754Z,96.40
2018-02-08T21:46:43.076Z,96.40
2018-02-08T21:49:12.650Z,96.60
2018-02-08T21:51:40.471Z,96.60
2018-02-08T21:54:08.800Z,96.70
2018-02-08T21:56:37.111Z,96.80
2018-02-08T21:59:05.444Z,96.70
2018-02-08T22:01:32.987Z,96.70
2018-02-08T22:04:04.325Z,96.70
2018-02-08T22:06:38.154Z,96.70
2018-02-08T22:09:13.834Z,96.60
2018-02-08T22:11:41.883Z,96.60
2018-02-08T22:14:12.422Z,96.60
2018-02-08T22:16:42.208Z,96.50
2018-02-08T22:19:14.288Z,96.50
2018-02-08T22:21:44.953Z,96.60
2018-02-08T22:24:14.409Z,96.60
2018-02-08T22:26:43.003Z,96.70
2018-02-08T22:29:14.853Z,96.70
2018-02-08T22:31:43.099Z,96.70
2018-02-08T22:34:10.674Z,96.70
2018-02-08T22:36:38.217Z,96.60
2018-02-08T22:39:05.784Z,96.50
2018-02-08T22:41:34.136Z,96.50
2018-02-08T22:44:02.504Z,96.60
2018-02-08T22:46:30.071Z,96.70
2018-02-08T22:48:58.387Z,96.70
2018-02-08T22:51:25.955Z,96.70
2018-02-08T22:53:54.272Z,96.70
2018-02-08T22:56:21.847Z,96.60
2018-02-08T22:58:50.160Z,96.40
2018-02-08T23:01:17.738Z,96.40
2018-02-08T23:03:46.056Z,96.30
2018-02-08T23:06:13.658Z,96.30
2018-02-08T23:08:41.202Z,96.30
2018-02-08T23:11:09.535Z,96.40
2018-02-08T23:13:37.122Z,96.40
2018-02-08T23:16:04.805Z,96.40
2018-02-08T23:18:32.352Z,96.50
2018-02-08T23:21:00.691Z,96.60
2018-02-08T23:23:29.255Z,96.60
2018-02-08T23:25:56.905Z,96.60
2018-02-08T23:28:24.457Z,96.70
2018-02-08T23:30:52.036Z,96.60
2018-02-08T23:33:19.603Z,96.50
2018-02-08T23:35:47.941Z,96.50
2018-02-08T23:38:15.516Z,96.50
2018-02-08T23:40:43.071Z,96.50
2018-02-08T23:43:11.407Z,96.60
2018-02-08T23:45:38.967Z,96.50
2018-02-08T23:48:07.303Z,96.80
2018-02-08T23:50:34.862Z,96.80
2018-02-08T23:53:02.451Z,96.70
2018-02-08T23:55:30.013Z,96.80
2018-02-08T23:57:58.343Z,96.80
